Time;durP1;ratioP1;P1;durP2;ratioP2;P2;SDS_P1;SDS_P2;PMS_P1;PMS_P2;Temp;Humidity;BMP_temperature;BMP_pressure;BME280_temperature;BME280_humidity;BME280_pressure;Samples;Min_cycle;Max_cycle;Signal;HPM_P1;HPM_P2
2023/03/13 00:01:13;;;;;;;11.45;3.00;;;8.10;99.90;;;;;;4971557;28;20031;-70
2023/03/13 00:03:39;;;;;;;13.90;3.67;;;8.10;99.90;;;;;;4963570;28;20094;-71
2023/03/13 00:06:05;;;;;;;10.00;2.92;;;8.10;99.90;;;;;;4964815;28;20032;-70
2023/03/13 00:08:30;;;;;;;9.18;2.97;;;8.00;99.90;;;;;;4963561;28;20031;-74
2023/03/13 00:10:56;;;;;;;10.05;3.92;;;8.00;99.90;;;;;;4963531;28;20043;-71
2023/03/13 00:13:22;;;;;;;7.45;2.33;;;8.00;99.90;;;;;;4963140;28;20038;-72
2023/03/13 00:15:48;;;;;;;10.40;3.15;;;8.00;99.90;;;;;;4963375;28;20038;-73
2023/03/13 00:18:14;;;;;;;12.90;4.15;;;8.00;99.90;;;;;;4946245;29;20054;-72
2023/03/13 00:20:39;;;;;;;16.08;4.45;;;8.00;99.90;;;;;;4963342;29;20035;-73
2023/03/13 00:23:05;;;;;;;11.30;3.50;;;8.00;99.90;;;;;;4963636;28;20038;-73
2023/03/13 00:25:31;;;;;;;13.65;3.67;;;8.00;99.90;;;;;;4945738;29;20249;-72
2023/03/13 00:27:56;;;;;;;11.07;3.67;;;8.10;99.90;;;;;;4963230;28;20030;-72
2023/03/13 00:30:22;;;;;;;10.98;3.30;;;8.10;99.90;;;;;;4963273;29;20027;-70
2023/03/13 06:03:02;;;;;;;0.65;0.25;;;12.60;99.90;;;;;;5282681;23;20058;-71
2023/03/13 06:05:34;;;;;;;1.90;0.40;;;12.60;99.90;;;;;;4967819;28;20026;-72
2023/03/13 06:08:03;;;;;;;0.88;0.20;;;12.60;99.90;;;;;;4984493;28;20023;-71
2023/03/13 06:10:28;;;;;;;2.25;0.50;;;12.60;99.90;;;;;;4967488;28;20050;-71
2023/03/13 06:12:55;;;;;;;1.67;0.20;;;12.70;99.90;;;;;;4967202;28;20027;-71
2023/03/13 06:15:23;;;;;;;;;;;12.80;99.90;;;;;;4968037;28;20066;-71
2023/03/13 06:17:54;;;;;;;1.30;0.17;;;12.80;99.90;;;;;;4967009;28;19906;-70
2023/03/13 06:20:21;;;;;;;0.70;0.10;;;12.80;99.90;;;;;;4984665;28;20033;-70
2023/03/13 06:22:46;;;;;;;1.13;0.30;;;13.00;99.90;;;;;;4983771;28;20249;-70
2023/03/13 06:25:12;;;;;;;0.90;0.20;;;13.00;99.90;;;;;;4984786;28;20038;-71
2023/03/13 06:27:40;;;;;;;1.27;0.20;;;13.00;99.90;;;;;;4984819;28;20038;-71
2023/03/13 06:30:08;;;;;;;0.65;0.20;;;13.00;99.90;;;;;;4983931;28;20082;-70
2023/03/13 06:32:34;;;;;;;;;;;13.10;99.90;;;;;;4986122;28;20027;-68
2023/03/13 06:35:00;;;;;;;0.82;0.10;;;13.10;99.90;;;;;;4984126;28;19909;-68
2023/03/13 06:37:25;;;;;;;1.20;0.10;;;13.20;99.90;;;;;;4984542;28;20107;-70
2023/03/13 06:39:51;;;;;;;1.65;0.10;;;13.20;99.90;;;;;;4984581;28;20031;-69
2023/03/13 06:42:17;;;;;;;1.65;0.10;;;13.30;99.90;;;;;;4984526;28;20034;-72
2023/03/13 06:44:43;;;;;;;0.70;0.25;;;13.40;99.90;;;;;;4984327;28;20134;-71
2023/03/13 06:47:09;;;;;;;1.33;0.30;;;13.40;99.90;;;;;;4983662;28;20070;-73
2023/03/13 06:49:35;;;;;;;0.85;0.20;;;13.40;99.90;;;;;;4983599;28;20101;-72
2023/03/13 06:52:00;;;;;;;1.45;0.20;;;13.50;99.90;;;;;;4983481;28;20263;-70
2023/03/13 06:54:26;;;;;;;1.55;0.38;;;13.50;99.90;;;;;;4983869;28;20296;-70
2023/03/13 06:56:52;;;;;;;0.60;0.20;;;13.50;99.90;;;;;;4980900;28;20041;-71
2023/03/13 06:59:18;;;;;;;0.80;0.20;;;13.50;99.90;;;;;;4983514;28;20031;-71
2023/03/13 07:01:44;;;;;;;0.52;0.10;;;13.50;99.90;;;;;;4982579;28;20043;-71
2023/03/13 07:04:12;;;;;;;2.78;0.47;;;13.50;99.90;;;;;;4983199;28;20035;-70
2023/03/13 07:06:38;;;;;;;0.60;0.10;;;13.50;99.90;;;;;;4991463;28;20030;-70
2023/03/13 07:09:04;;;;;;;1.45;0.25;;;13.50;99.90;;;;;;4983371;28;20093;-73
2023/03/13 07:11:30;;;;;;;2.13;0.20;;;13.50;99.90;;;;;;4974055;28;20034;-71
2023/03/13 07:13:56;;;;;;;0.73;0.20;;;13.50;99.90;;;;;;4982531;28;20168;-72
2023/03/13 07:16:22;;;;;;;0.82;0.20;;;13.50;99.90;;;;;;4973556;28;20026;-69
2023/03/13 07:18:47;;;;;;;2.05;0.25;;;13.50;99.90;;;;;;4983287;28;20031;-70
2023/03/13 07:21:13;;;;;;;1.27;0.22;;;13.50;99.90;;;;;;4983695;28;20383;-73
2023/03/13 07:23:39;;;;;;;0.52;0.10;;;13.50;99.90;;;;;;4983574;28;20023;-70
2023/03/13 07:26:14;;;;;;;1.40;0.22;;;13.60;99.90;;;;;;4982994;28;20073;-70
2023/03/13 07:28:40;;;;;;;0.98;0.17;;;13.50;99.90;;;;;;4983307;28;20331;-70
2023/03/13 07:31:17;;;;;;;0.60;0.20;;;13.50;99.90;;;;;;4981041;28;20042;-71
2023/03/13 07:33:44;;;;;;;1.13;0.30;;;13.50;99.90;;;;;;4979301;28;20043;-70
2023/03/13 07:36:11;;;;;;;0.85;0.28;;;13.50;99.90;;;;;;4982662;28;20342;-76
2023/03/13 07:38:37;;;;;;;0.68;0.20;;;13.50;99.90;;;;;;4965952;28;20041;-71
2023/03/13 07:41:03;;;;;;;1.50;0.30;;;13.50;99.90;;;;;;4982693;28;20031;-70
2023/03/13 07:43:30;;;;;;;1.65;0.28;;;13.50;99.90;;;;;;4983295;28;20027;-70
2023/03/13 07:46:06;;;;;;;1.15;0.20;;;13.50;99.90;;;;;;4982470;28;20038;-69
2023/03/13 07:48:35;;;;;;;0.35;0.10;;;13.60;99.90;;;;;;4983224;28;20037;-70
2023/03/13 07:51:01;;;;;;;0.52;0.20;;;13.50;99.90;;;;;;4982980;28;20047;-70
2023/03/13 07:53:28;;;;;;;1.98;0.22;;;13.60;99.90;;;;;;4981925;28;20324;-69
2023/03/13 07:56:06;;;;;;;0.85;0.38;;;13.60;99.90;;;;;;4977480;28;20073;-71
2023/03/13 07:58:36;;;;;;;0.98;0.20;;;13.60;99.90;;;;;;4982952;28;20038;-70
2023/03/13 08:01:17;;;;;;;2.30;0.40;;;13.70;99.90;;;;;;4982385;28;20038;-68
2023/03/13 08:03:44;;;;;;;1.02;0.30;;;13.70;99.90;;;;;;4982755;28;20062;-71
2023/03/13 08:06:15;;;;;;;1.40;0.20;;;13.80;99.90;;;;;;4974414;28;20046;-73
2023/03/13 08:08:41;;;;;;;1.52;0.30;;;13.90;99.90;;;;;;4966110;28;20113;-70
2023/03/13 08:11:15;;;;;;;1.67;0.20;;;14.00;99.90;;;;;;4979623;28;20212;-72
2023/03/13 08:13:42;;;;;;;1.95;0.20;;;14.10;99.90;;;;;;4982884;28;20110;-70
2023/03/13 08:16:09;;;;;;;1.63;0.30;;;14.30;99.90;;;;;;4982474;28;20042;-71
2023/03/13 08:18:37;;;;;;;0.75;0.40;;;14.40;99.90;;;;;;4993438;28;20090;-71
2023/03/13 08:21:08;;;;;;;1.85;0.40;;;14.50;99.90;;;;;;4982141;28;20050;-71
2023/03/13 08:23:35;;;;;;;0.77;0.20;;;14.70;99.90;;;;;;4981766;28;20035;-71
2023/03/13 08:26:13;;;;;;;2.95;0.30;;;14.80;99.90;;;;;;4965142;28;20019;-69
2023/03/13 08:28:39;;;;;;;2.65;0.47;;;15.00;99.90;;;;;;4983168;28;20292;-70
2023/03/13 08:31:11;;;;;;;1.48;0.32;;;15.20;99.90;;;;;;4982123;28;20042;-73
2023/03/13 08:33:37;;;;;;;1.15;0.20;;;15.30;99.90;;;;;;4982662;28;20031;-70
2023/03/13 08:36:24;;;;;;;1.95;0.38;;;15.40;99.90;;;;;;4982281;28;20228;-71
2023/03/13 08:38:52;;;;;;;0.88;0.20;;;15.40;99.90;;;;;;4982597;28;20045;-71
2023/03/13 08:41:24;;;;;;;2.42;0.28;;;15.40;99.90;;;;;;4982644;28;20046;-71
2023/03/13 08:43:53;;;;;;;0.90;0.30;;;15.40;99.90;;;;;;4982535;28;20065;-71
2023/03/13 08:46:20;;;;;;;1.40;0.40;;;15.40;99.90;;;;;;4982858;28;20039;-71
2023/03/13 08:48:53;;;;;;;1.90;0.43;;;15.40;99.90;;;;;;4982833;28;20038;-71
2023/03/13 08:51:21;;;;;;;3.53;0.40;;;15.50;99.90;;;;;;4978990;28;20344;-69
2023/03/13 08:53:47;;;;;;;2.67;0.40;;;15.60;99.90;;;;;;4972733;28;20102;-70
2023/03/13 08:56:15;;;;;;;2.50;0.50;;;15.80;99.90;;;;;;4978965;28;20201;-69
2023/03/13 08:58:42;;;;;;;1.40;0.30;;;15.80;99.90;;;;;;4982355;28;20045;-70
2023/03/13 09:01:11;;;;;;;1.77;0.40;;;15.70;99.90;;;;;;4972807;28;20042;-70
2023/03/13 09:03:37;;;;;;;1.13;0.30;;;15.60;99.90;;;;;;4982097;28;20058;-72
2023/03/13 09:06:03;;;;;;;1.17;0.30;;;15.60;99.90;;;;;;4981542;28;20033;-71
2023/03/13 09:08:30;;;;;;;1.90;0.70;;;15.60;99.90;;;;;;4975453;28;20103;-73
2023/03/13 09:11:01;;;;;;;2.38;0.38;;;15.60;99.90;;;;;;4973668;28;20041;-72
2023/03/13 09:13:28;;;;;;;1.67;0.30;;;15.70;99.90;;;;;;4966695;28;20034;-72
2023/03/13 09:16:08;;;;;;;1.85;0.45;;;15.70;99.90;;;;;;4968185;28;20058;-72
2023/03/13 09:18:34;;;;;;;1.73;0.40;;;15.60;99.90;;;;;;4986328;28;20031;-72
2023/03/13 09:21:01;;;;;;;2.47;0.50;;;15.70;99.90;;;;;;4985547;28;20091;-71
2023/03/13 09:23:27;;;;;;;1.92;0.50;;;15.70;99.90;;;;;;4985565;28;20042;-73
2023/03/13 09:25:55;;;;;;;0.98;0.30;;;15.80;99.70;;;;;;4977933;28;20134;-70
2023/03/13 09:28:21;;;;;;;2.60;0.60;;;15.80;99.80;;;;;;4985719;28;20211;-71
2023/03/13 09:30:48;;;;;;;1.50;0.45;;;15.90;99.60;;;;;;4985578;28;20031;-72
2023/03/13 09:33:19;;;;;;;3.50;0.50;;;16.00;99.40;;;;;;4984885;28;20264;-72
2023/03/13 09:35:52;;;;;;;1.80;0.68;;;15.90;99.40;;;;;;4984404;28;20045;-71
2023/03/13 09:38:20;;;;;;;3.35;0.40;;;16.00;99.40;;;;;;4983769;28;20054;-71
2023/03/13 09:40:51;;;;;;;1.67;0.55;;;16.20;99.10;;;;;;4985301;28;20240;-71
2023/03/13 09:43:42;;;;;;;2.35;0.40;;;16.30;98.90;;;;;;4984929;28;20034;-72
2023/03/13 09:46:31;;;;;;;2.38;0.50;;;16.30;98.70;;;;;;4985020;28;20038;-72
2023/03/13 09:49:04;;;;;;;0.85;0.30;;;16.30;98.60;;;;;;4959298;28;20069;-69
2023/03/13 09:51:35;;;;;;;3.13;0.40;;;16.30;98.70;;;;;;4974104;28;20089;-71
2023/03/13 09:54:15;;;;;;;1.77;0.50;;;16.40;98.40;;;;;;4983162;28;20058;-71
2023/03/13 09:57:04;;;;;;;2.25;0.50;;;16.60;98.20;;;;;;4978303;28;20090;-71
2023/03/13 09:59:55;;;;;;;1.85;0.60;;;16.70;97.80;;;;;;4967814;28;20276;-71
2023/03/13 10:02:31;;;;;;;2.42;0.50;;;16.80;97.30;;;;;;4963299;28;20051;-70
2023/03/13 10:05:20;;;;;;;2.92;0.57;;;16.80;97.40;;;;;;4984289;28;20031;-70
2023/03/13 10:07:46;;;;;;;2.33;0.63;;;16.90;97.30;;;;;;4973719;28;20077;-70
2023/03/13 10:10:47;;;;;;;2.97;0.70;;;16.90;97.10;;;;;;4958871;28;20031;-72
2023/03/13 10:13:22;;;;;;;3.33;0.70;;;16.90;96.80;;;;;;4956614;29;20047;-70
2023/03/13 10:16:02;;;;;;;3.08;0.47;;;16.80;96.70;;;;;;4967506;28;20114;-70
2023/03/13 10:18:27;;;;;;;3.40;0.68;;;16.90;96.70;;;;;;4979818;28;20031;-71
2023/03/13 10:20:59;;;;;;;3.47;0.60;;;17.10;96.40;;;;;;4984562;28;20205;-70
2023/03/13 10:23:44;;;;;;;2.92;0.70;;;17.20;96.30;;;;;;4984481;28;20308;-71
2023/03/13 10:26:19;;;;;;;2.80;0.63;;;17.30;96.00;;;;;;4984291;28;20098;-70
2023/03/13 10:28:45;;;;;;;1.55;0.55;;;17.50;95.70;;;;;;4981415;28;20035;-71
2023/03/13 10:31:31;;;;;;;1.48;0.68;;;17.70;95.20;;;;;;4974075;28;20120;-70
2023/03/13 10:34:11;;;;;;;1.67;0.45;;;17.80;94.60;;;;;;4983880;28;20098;-71
2023/03/13 10:36:45;;;;;;;2.80;0.60;;;17.90;94.30;;;;;;4984848;28;20303;-72
2023/03/13 10:39:17;;;;;;;3.60;0.82;;;18.20;93.80;;;;;;4983906;28;20090;-71
2023/03/13 10:41:43;;;;;;;2.15;0.60;;;18.60;93.50;;;;;;4984249;28;20050;-71
2023/03/13 10:44:16;;;;;;;2.72;0.70;;;18.90;92.70;;;;;;4983640;28;20248;-71
2023/03/13 10:46:45;;;;;;;2.47;0.77;;;19.00;92.40;;;;;;4983836;28;20034;-71
2023/03/13 10:49:19;;;;;;;1.40;0.50;;;19.10;92.40;;;;;;4983534;28;20019;-71
2023/03/13 10:52:00;;;;;;;3.22;0.75;;;18.80;92.20;;;;;;4973746;28;20043;-70
2023/03/13 10:54:29;;;;;;;6.10;0.90;;;18.70;92.60;;;;;;4984015;28;20047;-69
2023/03/13 10:57:25;;;;;;;2.13;0.60;;;18.70;92.30;;;;;;4984154;28;20033;-70
2023/03/13 10:59:52;;;;;;;1.80;0.70;;;18.90;92.30;;;;;;4980502;28;20046;-70
2023/03/13 11:02:31;;;;;;;2.70;1.05;;;19.20;92.00;;;;;;4983261;28;20396;-70
2023/03/13 11:04:58;;;;;;;2.08;0.70;;;19.50;91.30;;;;;;4983846;28;20359;-70
2023/03/13 11:07:37;;;;;;;4.90;1.40;;;19.70;90.80;;;;;;4978159;28;20035;-71
2023/03/13 11:10:17;;;;;;;3.85;0.60;;;19.80;90.60;;;;;;4982433;28;20111;-69
2023/03/13 11:12:50;;;;;;;3.13;0.60;;;20.00;90.50;;;;;;4983560;28;20086;-70
2023/03/13 11:15:28;;;;;;;2.42;0.70;;;19.90;90.40;;;;;;4983067;28;20102;-71
2023/03/13 11:18:02;;;;;;;2.40;0.75;;;19.60;90.50;;;;;;4983457;28;20327;-72
2023/03/13 11:20:32;;;;;;;2.40;0.60;;;19.40;91.30;;;;;;4983381;28;20050;-71
2023/03/13 11:23:03;;;;;;;2.45;0.60;;;19.60;91.10;;;;;;4983310;28;20065;-69
2023/03/13 11:25:48;;;;;;;4.55;1.00;;;19.50;90.50;;;;;;4983576;28;20035;-71
2023/03/13 11:28:46;;;;;;;3.50;0.90;;;19.70;90.40;;;;;;4983011;28;20309;-69
2023/03/13 11:31:32;;;;;;;2.05;0.77;;;19.70;90.40;;;;;;4982627;28;20038;-70
2023/03/13 11:34:42;;;;;;;2.42;0.65;;;19.70;90.30;;;;;;4983381;28;20038;-71
2023/03/13 11:37:13;;;;;;;2.47;0.60;;;19.60;90.60;;;;;;4982414;28;20070;-70
2023/03/13 11:40:05;;;;;;;3.60;0.80;;;20.60;89.70;;;;;;4983504;28;20033;-73
2023/03/13 11:42:56;;;;;;;2.55;0.80;;;21.50;86.60;;;;;;4946099;28;20214;-71
2023/03/13 11:45:42;;;;;;;2.38;0.63;;;22.00;84.20;;;;;;4982916;28;20034;-70
2023/03/13 11:48:47;;;;;;;4.00;0.55;;;22.10;83.90;;;;;;4985926;28;20038;-69
2023/03/13 11:51:49;;;;;;;2.85;0.50;;;22.50;83.30;;;;;;4973816;28;20042;-70
2023/03/13 11:54:25;;;;;;;3.53;0.57;;;23.40;80.60;;;;;;4984636;28;20065;-71
2023/03/13 11:57:13;;;;;;;1.48;0.35;;;23.60;79.90;;;;;;4972977;28;20029;-71
2023/03/13 11:59:49;;;;;;;1.25;0.50;;;23.40;79.10;;;;;;4979830;28;20038;-71
2023/03/13 12:02:30;;;;;;;1.50;0.50;;;22.80;80.10;;;;;;4982464;28;20050;-72
2023/03/13 12:05:12;;;;;;;2.50;0.68;;;22.90;80.00;;;;;;4982999;28;20099;-72
2023/03/13 12:07:57;;;;;;;1.52;0.40;;;23.10;79.60;;;;;;4978896;28;20031;-77
2023/03/13 12:10:36;;;;;;;3.75;0.80;;;23.70;77.80;;;;;;4982313;28;20046;-72
2023/03/13 12:13:29;;;;;;;2.90;0.60;;;23.10;78.80;;;;;;4982496;28;20201;-73
2023/03/13 12:15:59;;;;;;;2.08;0.50;;;24.30;76.80;;;;;;4982973;28;20035;-73
2023/03/13 12:18:37;;;;;;;1.30;0.43;;;25.00;74.30;;;;;;4982469;28;20054;-70
2023/03/13 12:21:11;;;;;;;3.03;0.40;;;24.90;74.30;;;;;;4987586;28;20106;-72
2023/03/13 12:23:55;;;;;;;2.15;0.40;;;24.70;74.00;;;;;;4969939;28;20245;-71
2023/03/13 12:26:36;;;;;;;1.95;0.47;;;25.00;74.10;;;;;;4981683;28;20076;-71
2023/03/13 12:29:14;;;;;;;2.55;0.50;;;25.70;72.60;;;;;;4970013;28;20368;-71
2023/03/13 12:31:42;;;;;;;;;;;25.50;71.40;;;;;;4982730;28;20038;-72
2023/03/13 12:34:12;;;;;;;3.00;0.60;;;24.70;71.50;;;;;;4976612;28;19911;-71
2023/03/13 12:36:52;;;;;;;2.63;0.35;;;24.40;72.20;;;;;;4977388;28;20031;-70
2023/03/13 12:39:42;;;;;;;2.55;0.40;;;24.20;72.60;;;;;;4978377;28;20042;-71
2023/03/13 12:42:28;;;;;;;1.35;0.50;;;24.50;72.10;;;;;;4982254;28;20117;-71
2023/03/13 12:44:56;;;;;;;2.95;0.50;;;24.30;72.10;;;;;;4982569;28;20102;-71
2023/03/13 12:47:33;;;;;;;2.30;0.60;;;24.80;71.50;;;;;;4981783;28;20046;-71
2023/03/13 12:50:13;;;;;;;1.38;0.30;;;24.50;71.00;;;;;;4978258;28;20035;-70
2023/03/13 12:52:45;;;;;;;1.90;0.40;;;24.80;70.70;;;;;;4978992;28;20063;-69
2023/03/13 12:55:35;;;;;;;0.80;0.30;;;25.40;69.50;;;;;;4981200;28;20130;-70
2023/03/13 12:58:28;;;;;;;2.03;0.50;;;25.90;68.90;;;;;;4986469;28;20035;-73
2023/03/13 13:00:55;;;;;;;3.08;0.50;;;26.50;67.90;;;;;;4984174;28;20085;-73
2023/03/13 13:03:28;;;;;;;1.67;0.30;;;27.30;66.40;;;;;;4968298;28;20050;-72
2023/03/13 13:06:00;;;;;;;2.08;0.40;;;27.40;66.20;;;;;;4985853;28;20384;-70
2023/03/13 13:08:32;;;;;;;1.70;0.50;;;26.80;65.70;;;;;;4985307;28;20076;-72
2023/03/13 13:11:35;;;;;;;1.55;0.40;;;26.50;66.10;;;;;;4978089;28;20098;-71
2023/03/13 13:14:10;;;;;;;2.70;0.40;;;26.80;65.70;;;;;;4986579;28;20094;-72
2023/03/13 13:16:42;;;;;;;1.70;0.50;;;27.80;64.60;;;;;;4985740;28;20054;-73
2023/03/13 13:19:22;;;;;;;1.63;0.20;;;27.60;63.90;;;;;;4980992;28;20071;-73
2023/03/13 13:22:26;;;;;;;3.15;0.43;;;27.70;63.30;;;;;;4981395;28;20026;-72
2023/03/13 13:24:56;;;;;;;2.40;0.30;;;27.40;63.40;;;;;;4985828;28;20069;-72
2023/03/13 13:27:46;;;;;;;1.00;0.32;;;27.60;63.10;;;;;;4985122;28;20105;-73
2023/03/13 13:30:17;;;;;;;2.38;0.38;;;26.50;64.60;;;;;;4977228;28;20042;-72
2023/03/13 13:32:45;;;;;;;1.58;0.38;;;26.30;65.40;;;;;;4976771;28;20039;-71
2023/03/13 13:35:30;;;;;;;1.27;0.40;;;25.90;64.80;;;;;;4980899;28;20379;-74
2023/03/13 13:38:28;;;;;;;2.53;0.40;;;25.60;65.40;;;;;;4985865;28;20057;-72
2023/03/13 13:40:57;;;;;;;;;;;25.80;65.20;;;;;;4985178;28;20081;-70
2023/03/13 13:43:23;;;;;;;4.47;0.50;;;25.20;65.90;;;;;;4985138;28;19938;-71
2023/03/13 13:46:05;;;;;;;2.95;0.52;;;24.70;66.30;;;;;;4985536;28;20018;-69
2023/03/13 13:48:41;;;;;;;3.70;0.43;;;24.10;67.80;;;;;;4984946;28;20284;-71
2023/03/13 13:51:10;;;;;;;2.08;0.40;;;23.70;68.60;;;;;;4984532;28;20077;-70
2023/03/13 13:53:42;;;;;;;3.38;0.60;;;23.90;68.70;;;;;;4985210;28;20089;-71
2023/03/13 13:56:27;;;;;;;1.63;0.40;;;24.40;67.90;;;;;;4984671;28;20204;-74
2023/03/13 13:59:22;;;;;;;2.38;0.30;;;24.50;67.50;;;;;;4983194;28;20057;-73
2023/03/13 14:02:07;;;;;;;2.50;0.38;;;24.30;66.90;;;;;;4974977;28;20074;-73
2023/03/13 14:05:05;;;;;;;3.83;0.30;;;24.10;67.60;;;;;;4984111;28;20038;-72
2023/03/13 14:07:39;;;;;;;1.25;0.30;;;24.70;66.50;;;;;;4980873;28;20090;-73
2023/03/13 14:10:26;;;;;;;2.50;0.50;;;25.00;65.60;;;;;;4976567;28;20331;-73
2023/03/13 14:12:57;;;;;;;0.88;0.30;;;24.90;66.10;;;;;;4983923;28;20275;-71
2023/03/13 14:15:27;;;;;;;1.80;0.35;;;25.00;65.80;;;;;;4984351;28;20223;-71
2023/03/13 14:17:59;;;;;;;1.73;0.50;;;25.00;65.90;;;;;;4984742;28;20081;-73
2023/03/13 14:20:36;;;;;;;2.40;0.85;;;26.10;64.80;;;;;;4984129;28;20038;-70
2023/03/13 14:23:09;;;;;;;1.63;0.35;;;26.40;64.10;;;;;;4984935;28;20035;-70
2023/03/13 14:25:47;;;;;;;2.85;0.40;;;26.50;64.00;;;;;;4984514;28;20105;-72
2023/03/13 14:28:25;;;;;;;0.98;0.30;;;27.10;62.50;;;;;;4984406;28;20194;-72
2023/03/13 14:30:54;;;;;;;2.85;0.50;;;27.30;62.10;;;;;;4984834;28;20054;-72
2023/03/13 14:33:20;;;;;;;3.28;0.40;;;28.60;61.00;;;;;;4982287;28;20034;-71
2023/03/13 14:35:46;;;;;;;1.40;0.30;;;30.00;59.20;;;;;;4984641;28;20084;-72
2023/03/13 14:38:23;;;;;;;2.03;0.30;;;31.00;56.80;;;;;;4984264;28;20317;-74
2023/03/13 14:40:52;;;;;;;2.78;0.40;;;31.40;55.70;;;;;;4984455;28;20047;-70
2023/03/13 14:43:34;;;;;;;3.88;0.70;;;31.00;55.30;;;;;;4983828;28;20102;-70
2023/03/13 14:46:11;;;;;;;2.00;0.40;;;31.20;55.50;;;;;;4984041;28;20038;-72
2023/03/13 14:48:37;;;;;;;1.27;0.30;;;32.30;54.60;;;;;;4978093;28;20301;-70
2023/03/13 14:51:26;;;;;;;2.83;0.55;;;33.80;54.00;;;;;;4981073;28;20035;-72
2023/03/13 14:54:02;;;;;;;5.15;0.60;;;34.20;52.60;;;;;;4984016;28;20042;-71
2023/03/13 14:56:40;;;;;;;2.20;0.38;;;34.60;50.80;;;;;;4983572;28;20068;-69
2023/03/13 14:59:18;;;;;;;3.72;0.47;;;34.70;50.50;;;;;;4982800;28;20335;-72
2023/03/13 15:01:45;;;;;;;3.92;0.98;;;33.10;51.00;;;;;;4983550;28;20035;-73
2023/03/13 15:04:11;;;;;;;1.70;0.38;;;31.90;52.10;;;;;;4983243;28;20035;-71
2023/03/13 15:06:37;;;;;;;2.20;0.60;;;30.60;53.60;;;;;;4966686;28;20366;-71
2023/03/13 15:09:22;;;;;;;1.40;0.30;;;30.20;54.40;;;;;;4983339;28;20058;-71
2023/03/13 15:12:13;;;;;;;1.23;0.30;;;30.50;55.00;;;;;;4974759;28;20054;-71
2023/03/13 15:14:42;;;;;;;1.27;0.30;;;31.90;54.00;;;;;;4966498;28;20054;-73
2023/03/13 15:17:12;;;;;;;2.90;0.50;;;32.00;52.50;;;;;;4983694;28;20309;-72
2023/03/13 15:19:38;;;;;;;0.95;0.40;;;32.00;52.40;;;;;;4984038;28;20050;-72
2023/03/13 15:22:04;;;;;;;2.47;0.40;;;31.90;52.50;;;;;;4983315;28;20054;-72
2023/03/13 15:24:30;;;;;;;2.83;0.40;;;31.00;53.00;;;;;;4983296;28;20594;-72
2023/03/13 15:26:56;;;;;;;2.92;0.32;;;31.20;54.60;;;;;;4983501;28;20082;-74
2023/03/13 15:29:22;;;;;;;0.90;0.30;;;31.80;52.30;;;;;;4965881;28;20252;-71
2023/03/13 15:31:47;;;;;;;4.05;0.60;;;31.60;52.80;;;;;;4983236;28;20040;-71
2023/03/13 15:34:15;;;;;;;2.85;0.60;;;31.60;52.90;;;;;;4983154;28;20265;-74
2023/03/13 15:36:41;;;;;;;1.90;0.40;;;31.50;52.70;;;;;;4966193;28;20018;-73
2023/03/13 15:39:19;;;;;;;1.75;0.40;;;31.10;53.10;;;;;;4983467;28;20476;-70
2023/03/13 15:41:44;;;;;;;;;;;30.80;53.60;;;;;;4966836;28;20045;-70
2023/03/13 15:44:10;;;;;;;3.45;0.30;;;30.40;53.70;;;;;;4983157;28;20104;-70
2023/03/13 15:46:36;;;;;;;1.55;0.50;;;29.30;54.90;;;;;;4983480;28;20050;-70
2023/03/13 15:49:02;;;;;;;3.42;0.38;;;29.40;55.00;;;;;;4983044;28;20031;-71
2023/03/13 15:51:29;;;;;;;2.83;0.40;;;29.30;55.50;;;;;;4982516;28;20305;-74
2023/03/13 15:53:55;;;;;;;3.42;0.57;;;30.00;54.20;;;;;;4982730;28;20034;-70
2023/03/13 15:56:22;;;;;;;2.50;0.50;;;29.00;54.90;;;;;;4982624;28;20078;-72
2023/03/13 15:58:48;;;;;;;3.92;0.50;;;28.50;56.00;;;;;;4982929;28;20240;-70
2023/03/13 16:01:16;;;;;;;3.15;0.63;;;28.80;56.00;;;;;;4982661;28;20030;-71
2023/03/13 16:03:41;;;;;;;1.48;0.60;;;29.50;55.30;;;;;;4982720;28;20051;-69
2023/03/13 16:06:19;;;;;;;2.05;0.40;;;29.50;54.90;;;;;;4983219;28;20193;-72
2023/03/13 16:08:45;;;;;;;4.18;0.75;;;29.20;55.50;;;;;;4983276;28;20309;-70
2023/03/13 16:11:13;;;;;;;3.05;0.55;;;28.30;56.50;;;;;;4977691;28;20037;-71
2023/03/13 16:13:39;;;;;;;;;;;27.80;57.40;;;;;;4984049;28;20347;-71
2023/03/13 16:16:35;;;;;;;2.70;0.50;;;27.60;58.40;;;;;;4984531;28;19941;-70
2023/03/13 16:19:03;;;;;;;1.27;0.50;;;28.00;57.90;;;;;;4978532;28;20046;-71
2023/03/13 16:21:33;;;;;;;1.83;0.60;;;29.00;57.40;;;;;;4982737;28;20039;-73
2023/03/13 16:23:59;;;;;;;3.20;0.70;;;28.90;57.10;;;;;;4986748;28;20038;-71
2023/03/13 16:26:27;;;;;;;2.20;0.40;;;27.70;58.50;;;;;;4986702;28;20105;-70
2023/03/13 16:28:54;;;;;;;1.95;0.50;;;26.50;59.60;;;;;;4986730;28;20042;-73
2023/03/13 16:31:31;;;;;;;3.05;1.02;;;25.30;61.30;;;;;;4986207;28;20039;-72
2023/03/13 16:33:58;;;;;;;3.97;1.08;;;24.40;63.50;;;;;;4986930;28;20061;-71
2023/03/13 16:36:28;;;;;;;2.25;0.52;;;24.00;64.60;;;;;;4985952;28;20090;-71
2023/03/13 16:38:55;;;;;;;4.25;0.60;;;23.60;65.90;;;;;;4986774;28;20027;-74
2023/03/13 16:41:22;;;;;;;4.68;0.60;;;23.40;66.10;;;;;;4985851;28;20046;-73
2023/03/13 16:43:49;;;;;;;2.95;0.75;;;23.00;67.10;;;;;;4969292;28;20312;-72
2023/03/13 16:46:26;;;;;;;2.08;0.70;;;22.80;67.60;;;;;;4968793;28;20039;-74
2023/03/13 16:48:52;;;;;;;1.60;0.57;;;22.50;68.00;;;;;;4986510;28;20364;-72
2023/03/13 16:51:23;;;;;;;3.88;0.55;;;22.30;68.60;;;;;;4968373;28;20039;-73
2023/03/13 16:53:52;;;;;;;2.50;0.70;;;22.20;69.40;;;;;;4986237;28;20042;-70
2023/03/13 16:56:25;;;;;;;2.65;0.55;;;22.10;69.70;;;;;;4985802;28;20030;-74
2023/03/13 16:58:52;;;;;;;2.13;0.50;;;21.90;69.90;;;;;;4986354;28;20153;-71
2023/03/13 17:01:18;;;;;;;1.55;0.50;;;21.80;70.60;;;;;;4985754;28;20042;-69
2023/03/13 17:03:44;;;;;;;1.55;0.60;;;21.80;70.60;;;;;;4985821;28;20090;-70
2023/03/13 17:06:15;;;;;;;4.97;0.65;;;21.60;71.60;;;;;;4986141;28;20034;-70
2023/03/13 17:08:42;;;;;;;2.67;0.50;;;21.50;71.60;;;;;;4986113;28;20287;-70
2023/03/13 17:11:14;;;;;;;4.00;0.83;;;21.40;71.70;;;;;;4985242;28;20347;-71
2023/03/13 17:13:44;;;;;;;2.25;0.77;;;21.30;72.80;;;;;;4986078;28;20043;-71
2023/03/13 17:16:22;;;;;;;4.10;0.77;;;21.20;72.70;;;;;;4986406;28;20035;-71
2023/03/13 17:18:50;;;;;;;2.85;0.70;;;21.00;73.30;;;;;;4986126;28;20049;-71
2023/03/13 17:21:22;;;;;;;3.80;1.02;;;20.90;73.30;;;;;;4984272;28;20042;-71
2023/03/13 17:23:48;;;;;;;3.60;0.93;;;20.90;73.50;;;;;;4986085;28;20034;-71
2023/03/13 17:26:20;;;;;;;2.60;0.93;;;20.70;74.00;;;;;;4985391;28;20022;-72
2023/03/13 17:28:48;;;;;;;3.05;0.80;;;20.70;75.40;;;;;;4985620;28;20030;-71
2023/03/13 17:31:14;;;;;;;3.35;1.40;;;20.60;74.70;;;;;;4985849;28;20319;-72
2023/03/13 17:33:40;;;;;;;3.75;1.52;;;20.50;74.80;;;;;;4984854;28;20030;-73
2023/03/13 17:36:21;;;;;;;4.43;0.90;;;20.40;75.40;;;;;;4985489;28;20038;-71
2023/03/13 17:38:52;;;;;;;2.92;1.00;;;20.40;76.70;;;;;;4985430;28;20034;-72
2023/03/13 17:41:22;;;;;;;2.53;0.90;;;20.40;76.10;;;;;;4984910;28;20053;-72
2023/03/13 17:43:48;;;;;;;2.92;1.00;;;20.30;76.70;;;;;;4986053;28;20043;-73
2023/03/13 17:46:24;;;;;;;2.55;0.95;;;20.30;78.70;;;;;;4985522;28;20031;-70
2023/03/13 17:48:52;;;;;;;4.28;1.15;;;20.30;76.60;;;;;;4975013;28;20035;-72
2023/03/13 17:51:23;;;;;;;2.95;1.10;;;20.30;77.00;;;;;;4982309;28;20094;-72
2023/03/13 17:53:49;;;;;;;3.92;1.00;;;20.20;76.90;;;;;;4988153;28;20114;-74
2023/03/13 17:56:26;;;;;;;5.47;1.63;;;20.20;76.90;;;;;;4971839;28;20019;-70
2023/03/13 17:58:56;;;;;;;2.10;0.85;;;20.10;78.50;;;;;;4984473;28;20042;-71
2023/03/13 18:01:25;;;;;;;2.42;0.90;;;20.10;77.60;;;;;;4973549;28;20031;-70
2023/03/13 18:03:51;;;;;;;5.75;1.85;;;20.10;78.20;;;;;;4984735;28;20035;-68
2023/03/13 18:06:38;;;;;;;6.07;2.40;;;20.00;78.90;;;;;;4984444;28;20327;-71
2023/03/13 18:09:07;;;;;;;8.90;1.92;;;20.00;79.70;;;;;;4980576;28;20047;-72
2023/03/13 18:11:35;;;;;;;5.55;1.95;;;20.00;79.50;;;;;;4984409;28;20050;-73
2023/03/13 18:14:04;;;;;;;7.63;2.33;;;19.90;80.10;;;;;;4985041;28;20217;-69
2023/03/13 18:16:46;;;;;;;6.88;3.30;;;19.80;79.60;;;;;;4984561;28;20094;-70
2023/03/13 18:19:17;;;;;;;7.25;3.20;;;19.60;79.70;;;;;;4985111;28;20343;-72
2023/03/13 18:21:45;;;;;;;8.77;2.80;;;19.40;80.50;;;;;;4983137;28;20359;-70
2023/03/13 18:24:12;;;;;;;6.72;2.60;;;19.30;81.00;;;;;;4985178;28;20031;-70
2023/03/13 18:26:40;;;;;;;5.57;2.60;;;19.10;81.80;;;;;;4978619;28;20332;-69
2023/03/13 18:29:13;;;;;;;8.18;2.78;;;19.10;82.70;;;;;;4975201;28;20096;-70
2023/03/13 18:31:40;;;;;;;7.18;2.40;;;19.10;82.50;;;;;;4984211;28;20118;-70
2023/03/13 18:34:06;;;;;;;6.93;2.38;;;19.10;83.70;;;;;;4985040;28;20304;-70
2023/03/13 18:36:32;;;;;;;6.57;2.45;;;19.10;82.40;;;;;;4984337;28;20316;-71
2023/03/13 18:38:58;;;;;;;5.75;1.90;;;19.10;82.20;;;;;;4983735;28;20030;-71
2023/03/13 18:41:24;;;;;;;2.13;0.82;;;19.00;82.60;;;;;;4984213;28;20344;-72
2023/03/13 18:43:51;;;;;;;2.95;1.00;;;18.50;86.80;;;;;;4984453;28;20030;-72
2023/03/13 18:46:22;;;;;;;4.97;0.85;;;17.90;90.50;;;;;;4983608;28;20029;-72